Impacts TAF Board INFO
FOR SITUATIONAL AWARENESS. NOT TO BE USED FOR FLIGHT PLANNING PURPOSES.
IDs:

KMKT - Mankato Rgnl, MN, US

Issued at 1120 UTC 19 Jul 2018
Updated at 1335 UTC 19 Jul 2018
Potential Impact None Slight Moderate High
Time<<20/02Z 20/03Z 20/04Z 20/05Z 20/06Z 20/07Z 20/08Z 20/09Z 20/10Z 20/11Z 20/12Z 20/13Z 20/14Z>>
Type PRVL PRVL PRVL PRVL PRVL PRVL PRVL PRVL PRVL PRVL
VIS 4 4 4 4 4 4 4 4 4 4
CIG 10 10 10 10 10 10 10 10 10 10
Cover OVC OVC OVC OVC OVC OVC OVC OVC OVC OVC
FltCat MVFR MVFR MVFR MVFR MVFR MVFR MVFR MVFR MVFR MVFR
WX BR BR BR BR BR BR BR BR BR BR
WDir 350 350 350 350 350 350 350 350 350 350
WSpd 10 10 10 10 10 10 10 10 10 10
WGst -- -- -- -- -- -- -- -- -- --

Raw TAF
KMKT 191120Z 1912/2012 13009KT 6SM -SHRA OVC040
  TEMPO 1912/1915 4SM -TSRA OVC030CB
  FM191500 17012G20KT 6SM -SHRA SCT020 OVC040
  TEMPO 1915/1918 4SM -TSRA OVC015CB
  FM192300 12009KT 4SM -SHRA BR OVC015
  FM200100 35010KT 4SM BR OVC010


METAR Board

FOR SITUATIONAL AWARENESS. NOT TO BE USED FOR FLIGHT PLANNING PURPOSES.